createdAt,value
2017-10-24T00:01:10.877Z,3.73
2017-10-24T00:03:38.370Z,4.07
2017-10-24T00:06:05.825Z,4.17
2017-10-24T00:08:33.277Z,5.63
2017-10-24T00:11:00.710Z,3.53
2017-10-24T00:13:28.192Z,3.73
2017-10-24T00:15:55.632Z,4.00
2017-10-24T00:18:23.069Z,3.10
2017-10-24T00:20:50.509Z,3.40
2017-10-24T00:23:17.954Z,3.70
2017-10-24T00:25:46.184Z,3.70
2017-10-24T00:28:13.628Z,3.70
2017-10-24T00:30:41.092Z,3.27
2017-10-24T00:33:08.533Z,3.20
2017-10-24T00:35:35.986Z,3.20
2017-10-24T00:38:03.428Z,3.90
2017-10-24T00:40:30.921Z,4.47
2017-10-24T00:42:58.381Z,3.40
2017-10-24T00:45:25.933Z,3.70
2017-10-24T00:47:53.404Z,3.80
2017-10-24T00:50:20.945Z,3.10
2017-10-24T00:52:48.410Z,3.20
2017-10-24T00:55:15.963Z,3.30
2017-10-24T00:57:43.414Z,3.80
2017-10-24T01:00:10.890Z,3.87
2017-10-24T01:02:38.326Z,3.60
2017-10-24T01:05:05.773Z,3.93
2017-10-24T01:07:33.318Z,3.57
2017-10-24T01:10:00.797Z,4.70
2017-10-24T01:12:28.257Z,3.83
2017-10-24T01:14:55.834Z,6.00
2017-10-24T01:17:23.288Z,4.20
2017-10-24T01:19:51.494Z,4.80
2017-10-24T01:22:18.998Z,4.90
2017-10-24T01:24:46.457Z,4.60
2017-10-24T01:27:13.906Z,4.30
2017-10-24T01:29:41.344Z,4.90
2017-10-24T01:32:08.789Z,4.00
2017-10-24T01:34:36.221Z,4.17
2017-10-24T01:37:03.679Z,5.00
2017-10-24T01:39:31.182Z,4.83
2017-10-24T01:41:58.741Z,4.93
2017-10-24T01:44:26.185Z,4.90
2017-10-24T01:46:53.628Z,4.97
2017-10-24T01:49:21.078Z,5.43
2017-10-24T01:51:48.568Z,5.57
2017-10-24T01:54:16.013Z,5.87
2017-10-24T01:56:43.470Z,5.20
2017-10-24T01:59:10.929Z,5.87
2017-10-24T02:01:38.485Z,5.10
2017-10-24T02:04:05.925Z,6.00
2017-10-24T02:06:33.396Z,5.63
2017-10-24T02:09:00.853Z,6.80
2017-10-24T02:11:28.313Z,5.30
2017-10-24T02:13:55.745Z,5.60
2017-10-24T02:16:23.225Z,5.50
2017-10-24T02:18:50.670Z,5.30
2017-10-24T02:21:18.136Z,6.33
2017-10-24T02:23:45.591Z,5.97
2017-10-24T02:26:13.049Z,5.60
2017-10-24T02:28:40.489Z,6.20
2017-10-24T02:31:07.937Z,5.87
2017-10-24T02:33:35.383Z,4.90
2017-10-24T02:36:02.825Z,5.00
2017-10-24T02:38:30.270Z,5.53
2017-10-24T02:40:57.705Z,5.00
2017-10-24T02:43:25.942Z,5.30
2017-10-24T02:45:53.361Z,5.30
2017-10-24T02:48:20.874Z,5.23
2017-10-24T02:50:48.373Z,4.93
2017-10-24T02:53:15.839Z,4.70
2017-10-24T02:55:43.333Z,6.77
2017-10-24T02:58:10.882Z,5.20
2017-10-24T03:00:38.325Z,4.77
2017-10-24T03:03:05.770Z,5.97
2017-10-24T03:05:33.211Z,5.13
2017-10-24T03:08:00.673Z,5.20
2017-10-24T03:10:28.253Z,5.50
2017-10-24T03:12:55.693Z,5.77
2017-10-24T03:15:23.191Z,5.70
2017-10-24T03:17:50.746Z,4.97
2017-10-24T03:20:18.286Z,4.90
2017-10-24T03:22:45.738Z,5.10
2017-10-24T03:25:13.185Z,5.50
2017-10-24T03:27:40.622Z,6.03
2017-10-24T03:30:08.112Z,4.63
2017-10-24T03:32:35.549Z,5.23
2017-10-24T03:35:03.015Z,5.00
2017-10-24T03:37:30.453Z,5.23
2017-10-24T03:39:57.909Z,4.60
2017-10-24T03:42:25.355Z,5.10
2017-10-24T03:44:52.819Z,4.40
2017-10-24T03:47:20.280Z,4.97
2017-10-24T03:49:47.753Z,4.93
2017-10-24T03:52:15.190Z,4.27
2017-10-24T03:54:42.644Z,4.60
2017-10-24T03:57:10.077Z,4.17
2017-10-24T03:59:37.577Z,4.30
2017-10-24T04:02:05.033Z,4.60
2017-10-24T04:04:32.489Z,4.80
2017-10-24T04:06:59.954Z,4.43
2017-10-24T04:09:27.510Z,5.10
2017-10-24T04:11:55.073Z,4.23
2017-10-24T04:14:22.630Z,4.20
2017-10-24T04:16:50.190Z,4.70
2017-10-24T04:19:17.745Z,4.63
2017-10-24T04:21:45.194Z,5.00
2017-10-24T04:24:12.653Z,4.60
2017-10-24T04:26:40.097Z,4.03
2017-10-24T04:29:08.374Z,4.30
2017-10-24T04:31:35.805Z,4.07
2017-10-24T04:34:03.233Z,4.40
2017-10-24T04:36:30.677Z,3.83
2017-10-24T04:38:58.912Z,4.43
2017-10-24T04:41:26.478Z,3.57
2017-10-24T04:43:53.928Z,4.10
2017-10-24T04:46:21.392Z,3.40
2017-10-24T04:48:48.829Z,3.80
2017-10-24T04:51:16.287Z,3.60
2017-10-24T04:53:43.718Z,4.33
2017-10-24T04:56:11.173Z,3.40
2017-10-24T04:58:38.637Z,3.40
2017-10-24T05:01:06.121Z,3.60
2017-10-24T05:03:33.697Z,3.10
2017-10-24T05:06:01.253Z,3.83
2017-10-24T05:08:28.950Z,3.50
2017-10-24T05:10:56.493Z,3.20
2017-10-24T05:13:24.724Z,3.77
2017-10-24T05:15:52.228Z,3.77
2017-10-24T05:18:19.695Z,3.40
2017-10-24T05:20:47.193Z,3.20
2017-10-24T05:23:14.804Z,3.00
2017-10-24T05:25:42.305Z,3.60
2017-10-24T05:28:09.762Z,2.43
2017-10-24T05:30:37.201Z,2.80
2017-10-24T05:33:05.057Z,2.70
2017-10-24T05:35:33.457Z,3.00
2017-10-24T05:38:00.907Z,3.43
2017-10-24T05:40:29.110Z,2.50
2017-10-24T05:42:56.646Z,2.90
2017-10-24T05:45:24.176Z,2.93
2017-10-24T05:47:51.661Z,3.73
2017-10-24T05:50:19.113Z,2.60
2017-10-24T05:52:46.577Z,3.67
2017-10-24T05:55:14.998Z,4.57
2017-10-24T05:57:42.517Z,2.63
2017-10-24T06:00:09.981Z,4.23
2017-10-24T06:02:37.473Z,2.50
2017-10-24T06:05:04.985Z,2.80
2017-10-24T06:07:32.453Z,1.90
2017-10-24T06:09:59.990Z,2.43
2017-10-24T06:12:27.517Z,3.07
2017-10-24T06:14:54.953Z,3.50
2017-10-24T06:17:22.398Z,3.10
2017-10-24T06:19:50.609Z,3.10
2017-10-24T06:22:18.053Z,3.00
2017-10-24T06:24:45.526Z,3.90
2017-10-24T06:27:12.963Z,3.23
2017-10-24T06:29:40.397Z,2.43
2017-10-24T06:32:07.952Z,5.33
2017-10-24T06:34:35.432Z,5.57
2017-10-24T06:37:02.888Z,2.60
2017-10-24T06:39:30.329Z,2.33
2017-10-24T06:41:57.785Z,3.03
2017-10-24T06:44:25.257Z,2.63
2017-10-24T06:46:52.706Z,2.47
2017-10-24T06:49:20.164Z,2.77
2017-10-24T06:51:47.619Z,2.97
2017-10-24T06:54:15.064Z,2.50
2017-10-24T06:56:42.509Z,3.57
2017-10-24T06:59:09.953Z,3.67
2017-10-24T07:01:38.160Z,2.40
2017-10-24T07:04:05.621Z,2.63
2017-10-24T07:06:33.074Z,2.40
2017-10-24T07:12:03.438Z,2.20
2017-10-24T07:14:31.022Z,1.87
2017-10-24T07:16:58.465Z,2.37
2017-10-24T07:19:25.921Z,3.53
2017-10-24T07:21:53.364Z,3.20
2017-10-24T07:24:20.839Z,2.17
2017-10-24T07:26:48.330Z,2.30
2017-10-24T07:29:16.793Z,2.10
2017-10-24T07:31:44.245Z,2.00
2017-10-24T07:34:12.204Z,1.87
2017-10-24T07:36:39.677Z,1.73
2017-10-24T07:39:07.172Z,2.63
2017-10-24T07:41:35.402Z,2.60
2017-10-24T07:44:02.856Z,2.47
2017-10-24T07:46:30.357Z,1.63
2017-10-24T07:48:57.870Z,2.17
2017-10-24T07:51:25.433Z,3.40
2017-10-24T07:53:52.886Z,3.37
2017-10-24T07:56:20.341Z,2.90
2017-10-24T07:58:47.793Z,2.87
2017-10-24T08:01:15.262Z,1.93
2017-10-24T08:03:42.814Z,1.60
2017-10-24T08:06:10.269Z,2.13
2017-10-24T08:08:37.764Z,3.00
2017-10-24T08:11:06.390Z,2.53
2017-10-24T08:13:33.873Z,1.40
2017-10-24T08:16:01.329Z,2.60
2017-10-24T08:18:28.787Z,2.50
2017-10-24T08:20:56.250Z,1.63
2017-10-24T08:23:23.712Z,2.10
2017-10-24T08:25:51.634Z,1.33
2017-10-24T08:28:19.113Z,2.63
2017-10-24T08:30:46.577Z,2.30
2017-10-24T08:33:14.021Z,1.77
2017-10-24T08:35:41.478Z,1.40
2017-10-24T08:38:09.054Z,2.40
2017-10-24T08:40:36.598Z,1.77
2017-10-24T08:43:04.147Z,1.67
2017-10-24T08:45:31.709Z,1.40
2017-10-24T08:47:59.267Z,2.37
2017-10-24T08:50:26.789Z,1.30
2017-10-24T08:52:54.234Z,1.20
2017-10-24T08:55:21.683Z,2.10
2017-10-24T08:57:49.150Z,1.50
2017-10-24T09:00:16.606Z,1.90
2017-10-24T09:02:44.057Z,1.63
2017-10-24T09:05:11.516Z,2.87
2017-10-24T09:07:38.998Z,1.30
2017-10-24T09:10:06.439Z,1.30
2017-10-24T09:12:36.884Z,1.70
2017-10-24T09:15:04.357Z,1.40
2017-10-24T09:17:32.618Z,1.80
2017-10-24T09:20:00.065Z,2.60
2017-10-24T09:22:27.509Z,1.20
2017-10-24T09:24:54.979Z,2.50
2017-10-24T09:27:22.441Z,1.30
2017-10-24T09:29:49.998Z,2.13
2017-10-24T09:32:17.494Z,1.17
2017-10-24T09:34:45.716Z,1.70
2017-10-24T09:37:13.179Z,2.37
2017-10-24T09:39:40.650Z,2.27
2017-10-24T09:42:08.090Z,1.20
2017-10-24T09:44:35.649Z,1.70
2017-10-24T09:47:03.114Z,2.40
2017-10-24T09:49:30.594Z,3.23
2017-10-24T09:51:58.925Z,1.20
2017-10-24T09:54:26.393Z,1.27
2017-10-24T09:56:53.878Z,2.07
2017-10-24T09:59:39.190Z,1.67
2017-10-24T10:02:06.679Z,1.30
2017-10-24T10:04:34.148Z,0.97
2017-10-24T10:07:02.205Z,1.37
2017-10-24T10:09:29.771Z,1.30
2017-10-24T10:11:57.212Z,1.43
2017-10-24T10:14:25.601Z,1.20
2017-10-24T10:16:53.045Z,1.30
2017-10-24T10:19:20.614Z,1.07
2017-10-24T10:21:53.696Z,1.73
2017-10-24T10:27:20.561Z,1.50
2017-10-24T10:29:48.124Z,1.20
2017-10-24T10:32:15.681Z,1.30
2017-10-24T10:34:43.138Z,1.30
2017-10-24T10:37:10.614Z,2.10
2017-10-24T10:39:38.062Z,1.33
2017-10-24T10:42:05.517Z,1.33
2017-10-24T10:44:32.974Z,0.77
2017-10-24T10:47:00.457Z,1.60
2017-10-24T10:49:27.970Z,1.40
2017-10-24T10:51:55.517Z,2.70
2017-10-24T10:54:22.980Z,1.77
2017-10-24T10:56:50.538Z,1.50
2017-10-24T10:59:18.129Z,1.17
2017-10-24T11:01:46.346Z,1.10
2017-10-24T11:04:13.806Z,1.20
2017-10-24T11:06:41.261Z,1.20
2017-10-24T11:09:08.723Z,1.17
2017-10-24T11:11:36.177Z,1.30
2017-10-24T11:14:03.632Z,1.77
2017-10-24T11:16:31.105Z,1.20
2017-10-24T11:18:58.671Z,1.47
2017-10-24T11:21:26.127Z,1.10
2017-10-24T11:23:53.583Z,0.93
2017-10-24T11:26:21.032Z,1.40
2017-10-24T11:28:48.893Z,1.40
2017-10-24T11:31:16.364Z,2.70
2017-10-24T11:33:43.816Z,2.37
2017-10-24T11:36:11.288Z,1.43
2017-10-24T11:38:39.544Z,1.40
2017-10-24T11:41:06.998Z,3.93
2017-10-24T11:43:34.462Z,1.50
2017-10-24T11:46:02.613Z,2.27
2017-10-24T11:48:30.068Z,2.20
2017-10-24T11:50:57.627Z,1.40
2017-10-24T11:53:25.185Z,0.93
2017-10-24T11:55:52.763Z,1.90
2017-10-24T11:58:20.222Z,1.40
2017-10-24T12:00:47.764Z,1.57
2017-10-24T12:03:15.225Z,1.83
2017-10-24T12:05:42.805Z,1.47
2017-10-24T12:08:11.034Z,1.57
2017-10-24T12:10:38.476Z,1.80
2017-10-24T12:13:05.925Z,1.57
2017-10-24T12:15:33.380Z,1.30
2017-10-24T12:18:01.856Z,1.60
2017-10-24T12:20:29.319Z,1.40
2017-10-24T12:22:56.758Z,1.23
2017-10-24T12:25:24.230Z,2.50
2017-10-24T12:27:51.687Z,2.23
2017-10-24T12:30:19.130Z,1.33
2017-10-24T12:32:46.717Z,1.47
2017-10-24T12:35:14.168Z,1.40
2017-10-24T12:37:41.641Z,1.50
2017-10-24T12:40:09.099Z,1.20
2017-10-24T12:42:38.237Z,1.53
2017-10-24T12:45:24.366Z,1.60
2017-10-24T12:47:51.812Z,1.40
2017-10-24T12:53:23.189Z,1.20
2017-10-24T12:55:50.646Z,2.50
2017-10-24T12:58:20.572Z,1.80
2017-10-24T13:00:48.018Z,1.10
2017-10-24T13:03:15.550Z,1.67
2017-10-24T13:05:43.007Z,1.03
2017-10-24T13:08:10.460Z,1.67
2017-10-24T13:10:38.681Z,3.83
2017-10-24T13:13:06.146Z,1.50
2017-10-24T13:15:33.598Z,2.30
2017-10-24T13:18:01.056Z,1.27
2017-10-24T13:20:28.514Z,1.30
2017-10-24T13:22:55.950Z,1.17
2017-10-24T13:25:23.426Z,1.10
2017-10-24T13:27:51.641Z,1.97
2017-10-24T13:30:19.093Z,0.90
2017-10-24T13:32:46.540Z,1.33
2017-10-24T13:35:13.980Z,1.00
2017-10-24T13:37:42.209Z,1.13
2017-10-24T13:40:09.691Z,1.37
2017-10-24T13:42:37.190Z,1.50
2017-10-24T13:45:04.646Z,1.10
2017-10-24T13:47:32.097Z,1.10
2017-10-24T13:49:59.616Z,3.57
2017-10-24T13:52:27.184Z,2.53
2017-10-24T13:54:55.462Z,1.10
2017-10-24T13:57:23.682Z,1.47
2017-10-24T13:59:51.175Z,2.10
2017-10-24T14:02:18.642Z,1.13
2017-10-24T14:04:51.874Z,1.23
2017-10-24T14:07:24.922Z,2.00
2017-10-24T14:09:58.776Z,3.30
2017-10-24T14:12:26.228Z,1.77
2017-10-24T14:14:53.683Z,1.10
2017-10-24T14:17:21.283Z,1.73
2017-10-24T14:19:48.718Z,1.20
2017-10-24T14:22:16.282Z,3.07
2017-10-24T14:24:43.799Z,1.03
2017-10-24T14:27:11.461Z,1.30
2017-10-24T14:29:38.898Z,1.07
2017-10-24T14:32:07.105Z,1.10
2017-10-24T14:34:35.313Z,1.13
2017-10-24T14:37:02.852Z,2.10
2017-10-24T14:39:30.622Z,1.30
2017-10-24T14:41:58.077Z,1.00
2017-10-24T14:44:25.508Z,1.47
2017-10-24T14:46:52.978Z,1.10
2017-10-24T14:49:20.448Z,2.00
2017-10-24T14:51:47.931Z,0.90
2017-10-24T14:54:16.161Z,1.00
2017-10-24T14:56:43.621Z,3.50
2017-10-24T14:59:11.088Z,2.03
2017-10-24T15:01:39.124Z,2.77
2017-10-24T15:04:06.601Z,2.67
2017-10-24T15:06:34.161Z,1.10
2017-10-24T15:09:02.295Z,3.23
2017-10-24T15:11:29.734Z,1.30
2017-10-24T15:13:57.249Z,2.13
2017-10-24T15:16:24.996Z,0.73
2017-10-24T15:18:52.579Z,1.30
2017-10-24T15:21:20.498Z,1.20
2017-10-24T15:23:47.953Z,1.20
2017-10-24T15:26:15.393Z,1.20
2017-10-24T15:28:42.905Z,1.70
2017-10-24T15:31:10.463Z,1.80
2017-10-24T15:33:38.024Z,1.67
2017-10-24T15:36:05.579Z,1.47
2017-10-24T15:38:33.041Z,2.93
2017-10-24T15:41:00.498Z,4.23
2017-10-24T15:43:27.955Z,4.30
2017-10-24T15:45:55.412Z,4.27
2017-10-24T15:48:22.897Z,1.50
2017-10-24T15:50:50.341Z,2.17
2017-10-24T15:53:18.564Z,2.40
2017-10-24T15:55:46.127Z,4.37
2017-10-24T15:58:13.570Z,6.20
2017-10-24T16:00:41.016Z,3.87
2017-10-24T16:03:08.473Z,2.57
2017-10-24T16:05:35.929Z,2.40
2017-10-24T16:08:13.467Z,3.20
2017-10-24T16:10:41.009Z,3.20
2017-10-24T16:13:08.568Z,4.33
2017-10-24T16:15:36.202Z,2.70
2017-10-24T16:18:03.829Z,3.13
2017-10-24T16:20:32.154Z,3.63
2017-10-24T16:22:59.610Z,2.57
2017-10-24T16:25:27.917Z,4.00
2017-10-24T16:27:56.221Z,4.00
2017-10-24T16:30:33.579Z,3.37
2017-10-24T16:33:01.818Z,2.90
2017-10-24T16:35:29.272Z,4.33
2017-10-24T16:37:56.872Z,2.60
2017-10-24T16:40:24.414Z,2.67
2017-10-24T16:42:51.861Z,4.63
2017-10-24T16:45:19.409Z,4.13
2017-10-24T16:47:46.858Z,4.23
2017-10-24T16:50:14.353Z,4.30
2017-10-24T16:52:41.878Z,5.80
2017-10-24T16:55:09.503Z,5.53
2017-10-24T16:57:36.999Z,4.93
2017-10-24T17:00:04.629Z,5.30
2017-10-24T17:02:32.093Z,8.30
2017-10-24T17:04:59.569Z,5.77
2017-10-24T17:07:27.021Z,5.67
2017-10-24T17:09:54.474Z,5.40
2017-10-24T17:12:22.010Z,7.30
2017-10-24T17:14:49.463Z,6.57
2017-10-24T17:17:16.921Z,7.37
2017-10-24T17:19:44.370Z,7.40
2017-10-24T17:22:11.850Z,9.53
2017-10-24T17:24:39.414Z,9.50
2017-10-24T17:27:06.889Z,8.70
2017-10-24T17:29:34.325Z,9.07
2017-10-24T17:32:01.924Z,10.27
2017-10-24T17:34:30.268Z,9.83
2017-10-24T17:36:57.813Z,9.90
2017-10-24T17:39:25.256Z,13.17
2017-10-24T17:41:52.717Z,14.00
2017-10-24T17:44:20.890Z,13.13
2017-10-24T17:46:48.449Z,12.83
2017-10-24T17:49:16.018Z,12.10
2017-10-24T17:51:43.568Z,10.47
2017-10-24T17:54:11.033Z,9.83
2017-10-24T17:56:38.473Z,11.33
2017-10-24T17:59:06.049Z,12.23
2017-10-24T18:01:33.945Z,11.13
2017-10-24T18:04:02.194Z,11.93
2017-10-24T18:06:30.125Z,12.57
2017-10-24T18:08:57.621Z,13.10
2017-10-24T18:11:25.183Z,12.93
2017-10-24T18:13:52.642Z,16.60
2017-10-24T18:16:20.157Z,12.90
2017-10-24T18:18:47.630Z,12.37
2017-10-24T18:21:15.266Z,12.50
2017-10-24T18:23:42.750Z,12.57
2017-10-24T18:26:10.221Z,12.30
2017-10-24T18:28:37.701Z,11.40
2017-10-24T18:31:05.917Z,11.90
2017-10-24T18:33:33.515Z,12.20
2017-10-24T18:36:00.962Z,10.87
2017-10-24T18:38:28.417Z,9.83
2017-10-24T18:40:55.879Z,10.73
2017-10-24T18:43:23.341Z,11.43
2017-10-24T18:45:51.594Z,10.90
2017-10-24T18:48:19.119Z,10.23
2017-10-24T18:50:46.554Z,11.13
2017-10-24T18:53:14.013Z,10.80
2017-10-24T18:55:41.471Z,8.90
2017-10-24T18:58:09.659Z,8.97
2017-10-24T19:00:37.109Z,8.83
2017-10-24T19:03:04.565Z,8.40
2017-10-24T19:05:32.042Z,7.60
2017-10-24T19:08:00.514Z,7.50
2017-10-24T19:10:27.976Z,7.90
2017-10-24T19:12:55.424Z,6.80
2017-10-24T19:15:22.890Z,7.87
2017-10-24T19:17:50.339Z,7.17
2017-10-24T19:20:17.791Z,6.77
2017-10-24T19:22:45.268Z,6.37
2017-10-24T19:25:12.822Z,6.97
2017-10-24T19:27:40.268Z,6.20
2017-10-24T19:30:07.726Z,7.30
2017-10-24T19:32:35.180Z,6.60
2017-10-24T19:35:02.633Z,5.27
2017-10-24T19:37:30.089Z,6.07
2017-10-24T19:39:57.541Z,5.63
2017-10-24T19:42:25.002Z,6.10
2017-10-24T19:44:52.460Z,5.93
2017-10-24T19:47:19.919Z,6.80
2017-10-24T19:49:47.390Z,5.60
2017-10-24T19:52:15.654Z,4.90
2017-10-24T19:54:43.114Z,5.17
2017-10-24T19:57:11.389Z,3.53
2017-10-24T19:59:38.850Z,4.23
2017-10-24T20:02:06.362Z,4.53
2017-10-24T20:04:33.824Z,5.13
2017-10-24T20:07:01.284Z,2.90
2017-10-24T20:09:28.722Z,3.03
2017-10-24T20:11:56.181Z,3.50
2017-10-24T20:14:23.604Z,2.63
2017-10-24T20:16:51.864Z,2.63
2017-10-24T20:19:19.402Z,3.13
2017-10-24T20:21:46.950Z,3.20
2017-10-24T20:24:14.536Z,3.03
2017-10-24T20:26:41.992Z,2.80
2017-10-24T20:29:09.450Z,2.73
2017-10-24T20:31:36.906Z,4.53
2017-10-24T20:34:04.347Z,2.73
2017-10-24T20:36:31.806Z,3.17
2017-10-24T20:38:59.404Z,3.87
2017-10-24T20:41:27.605Z,2.40
2017-10-24T20:43:55.135Z,5.30
2017-10-24T20:46:22.610Z,2.67
2017-10-24T20:48:50.214Z,2.83
2017-10-24T20:51:17.742Z,2.70
2017-10-24T20:53:45.196Z,3.00
2017-10-24T20:56:12.656Z,2.83
2017-10-24T20:58:40.136Z,2.13
2017-10-24T21:01:07.653Z,3.30
2017-10-24T21:03:35.143Z,2.40
2017-10-24T21:06:02.631Z,1.87
2017-10-24T21:08:30.105Z,3.13
2017-10-24T21:10:57.643Z,2.53
2017-10-24T21:13:25.153Z,2.40
2017-10-24T21:15:52.681Z,2.60
2017-10-24T21:18:20.223Z,2.73
2017-10-24T21:20:48.469Z,2.83
2017-10-24T21:23:16.701Z,3.00
2017-10-24T21:25:44.198Z,2.77
2017-10-24T21:28:11.650Z,2.07
2017-10-24T21:30:39.089Z,3.20
2017-10-24T21:33:06.608Z,2.20
2017-10-24T21:35:34.048Z,2.20
2017-10-24T21:38:02.431Z,2.70
2017-10-24T21:40:30.808Z,2.00
2017-10-24T21:42:58.354Z,2.00
2017-10-24T21:45:26.573Z,3.20
2017-10-24T21:47:54.021Z,2.37
2017-10-24T21:50:21.498Z,2.57
2017-10-24T21:52:49.052Z,1.73
2017-10-24T21:55:16.632Z,2.97
2017-10-24T21:57:44.175Z,2.20
2017-10-24T22:00:11.643Z,2.70
2017-10-24T22:02:39.087Z,4.53
2017-10-24T22:05:06.541Z,2.63
2017-10-24T22:07:33.975Z,2.40
2017-10-24T22:10:01.450Z,2.17
2017-10-24T22:12:29.009Z,2.20
2017-10-24T22:14:56.475Z,2.20
2017-10-24T22:17:23.904Z,2.70
2017-10-24T22:19:51.356Z,1.87
2017-10-24T22:22:18.843Z,1.83
2017-10-24T22:24:46.377Z,2.27
2017-10-24T22:27:13.817Z,2.57
2017-10-24T22:29:41.284Z,2.73
2017-10-24T22:32:08.733Z,2.57
2017-10-24T22:34:36.198Z,2.07
2017-10-24T22:37:03.650Z,2.17
2017-10-24T22:39:31.714Z,4.83
2017-10-24T22:41:59.157Z,1.93
2017-10-24T22:44:26.642Z,2.17
2017-10-24T22:46:54.102Z,2.70
2017-10-24T22:49:21.549Z,2.00
2017-10-24T22:51:49.115Z,2.23
2017-10-24T22:54:16.665Z,1.87
2017-10-24T22:56:44.118Z,1.90
2017-10-24T22:59:11.558Z,2.07
2017-10-24T23:01:39.002Z,3.37
2017-10-24T23:04:06.445Z,1.50
2017-10-24T23:06:33.936Z,1.73
2017-10-24T23:09:01.419Z,1.83
2017-10-24T23:11:28.861Z,1.70
2017-10-24T23:13:56.318Z,2.13
2017-10-24T23:16:23.775Z,1.60
2017-10-24T23:18:51.964Z,1.93
2017-10-24T23:21:19.405Z,1.57
2017-10-24T23:23:46.866Z,1.50
2017-10-24T23:26:14.326Z,1.60
2017-10-24T23:28:41.765Z,2.73
2017-10-24T23:31:09.249Z,1.67
2017-10-24T23:33:37.514Z,1.30
2017-10-24T23:36:05.814Z,2.37
2017-10-24T23:38:33.323Z,2.50
2017-10-24T23:41:00.848Z,1.27
2017-10-24T23:43:28.340Z,1.00
2017-10-24T23:45:55.867Z,1.20
2017-10-24T23:48:23.354Z,3.10
2017-10-24T23:50:50.915Z,2.03
2017-10-24T23:53:19.149Z,1.60
2017-10-24T23:55:46.613Z,2.10
2017-10-24T23:58:14.134Z,0.93
